Mountain Iron, MN (55768)

4:11 AM CST on November 21, 2017 (GMT -0600)
Majestic Lake | | Change Station

Elev 1409 ft 47.46 °N, 92.63 °W | Updated 5 seconds ago

Overcast
Overcast
20.8 °F
Feels Like 10 °F
N
9.8
Wind Variable Wind from NNW
Gusts 26.2 mph

Today
High -- | Low -- °F
--% Chance of Precip.
Yesterday
High -- | Low -- °F
Precip. -- in
Pressure 29.55 in
Visibility 10.0 miles
Clouds Scattered Clouds 1100 ft
Scattered Clouds 2800 ft
Scattered Clouds 3500 ft
Windchill 10 °F
Dew Point 16 °F
Humidity 81%
Rainfall 0.00 in
Snow Depth Not available.
7:24 AM 4:27 PM
Waxing Crescent, 8% visible
METAR KEVM 210955Z AUTO 30020G25KT 10SM -SN SCT011 SCT028 SCT035 M07/M13 A2955 RMK AO2
Pressure 29.55 in
Visibility 10.0 miles
Clouds Scattered Clouds 1100 ft
Scattered Clouds 2800 ft
Scattered Clouds 3500 ft
Windchill 10 °F
Dew Point 16 °F
Humidity 81%
Rainfall 0.00 in
Snow Depth Not available.
7:24 AM 4:27 PM
Waxing Crescent, 8% visible
METAR KEVM 210955Z AUTO 30020G25KT 10SM -SN SCT011 SCT028 SCT035 M07/M13 A2955 RMK AO2

Get Severe Weather Alerts

Thanks for signing up!

Be on the lookout for a verification email in your inbox.

You'll start receiving the daily forecast at 6 AM.

×

10-Day Weather Forecast

Almanac

Astronomy

Nov. 21, 2017 Rise Set
Actual Time
Civil Twilight
Nautical Twilight
Astronomical Twilight
Moon
Length of Visible Light
Length of Day
Tomorrow will be .
, % of the Moon is Illuminated

Today's Extremes

State Highs State Lows

Community

WunderPhotos

Category 6

Welcome to Category 6. This is the collective home for Weather Underground's featured writeups by Dr. Jeff Masters (right), Bob Henson (left), Chris Burt, and other regular contributors.

Nearby

Air Quality

  Air Quality AQ Index Pollutant
Not available.

Snow Depth

Station Depth Elevation

Earthquake Activity

City Distance Mag. Time & Date
Minimum magnitude displayed is 2.5.

Coastal Water Temperatures

Place Temperature

Stations

Nearby Weather Stations

Station Location Temp. Windchill Dew Point Humidity Wind Precip. Elev Updated Type
                   

Watches & Warnings

There are currently no watches in effect.